Troy, Idaho
Current Conditions -  °F | °C
As of 6:53 PM on Monday 22 Dec 2014 (Local Time) from KPUW Reporting Station
Clear Clear  
Wind Chill: -1°   Ceiling: Unl
Heat Index:   Visibility: 10mi
Dew Point: -2°   Wind: 5mph
Humidity: 82%   Direction: 210°SSW
Pressure: 30.32"   Gusts: NA
Location:  46.74°N, 116.77°W
Report Text: KPUW 230253Z AUTO 21004KT 10SM CLR 01/M02 A3032 RMK AO2 SLP288 T00111017 53014
Loading
Personal Weather Stations






























Interactive Weather Map New forecast layout! Learn more

10-Day Weather Forecast

Advertisements
Track Severe Weather on mobile